sensor_id;sensor_type;location;lat;lon;timestamp;P1;durP1;ratioP1;P2;durP2;ratioP2
20870;SDS011;10595;51.218;3.452;2023-04-03T00:00:42;19.40;;;10.73;;
20870;SDS011;10595;51.218;3.452;2023-04-03T00:03:08;16.90;;;11.53;;
20870;SDS011;10595;51.218;3.452;2023-04-03T00:05:34;19.50;;;11.73;;
20870;SDS011;10595;51.218;3.452;2023-04-03T00:08:02;17.63;;;11.30;;
20870;SDS011;10595;51.218;3.452;2023-04-03T00:10:29;16.77;;;10.53;;
20870;SDS011;10595;51.218;3.452;2023-04-03T00:12:55;16.17;;;10.67;;
20870;SDS011;10595;51.218;3.452;2023-04-03T00:15:21;12.07;;;9.53;;
20870;SDS011;10595;51.218;3.452;2023-04-03T00:17:47;16.10;;;9.70;;
20870;SDS011;10595;51.218;3.452;2023-04-03T00:20:13;17.87;;;9.67;;
20870;SDS011;10595;51.218;3.452;2023-04-03T00:22:39;15.03;;;10.03;;
20870;SDS011;10595;51.218;3.452;2023-04-03T00:25:05;14.87;;;10.53;;
20870;SDS011;10595;51.218;3.452;2023-04-03T00:27:31;16.03;;;9.73;;
20870;SDS011;10595;51.218;3.452;2023-04-03T00:29:57;15.47;;;10.90;;
20870;SDS011;10595;51.218;3.452;2023-04-03T00:32:23;17.83;;;10.43;;
20870;SDS011;10595;51.218;3.452;2023-04-03T00:34:49;14.80;;;10.77;;
20870;SDS011;10595;51.218;3.452;2023-04-03T00:37:16;19.00;;;11.17;;
20870;SDS011;10595;51.218;3.452;2023-04-03T00:39:42;14.93;;;10.50;;
20870;SDS011;10595;51.218;3.452;2023-04-03T00:42:08;16.80;;;10.97;;
20870;SDS011;10595;51.218;3.452;2023-04-03T00:47:00;19.60;;;11.20;;
20870;SDS011;10595;51.218;3.452;2023-04-03T00:49:26;15.00;;;9.67;;
20870;SDS011;10595;51.218;3.452;2023-04-03T00:51:53;14.70;;;10.80;;
20870;SDS011;10595;51.218;3.452;2023-04-03T00:54:20;14.57;;;10.53;;
20870;SDS011;10595;51.218;3.452;2023-04-03T00:56:46;16.20;;;10.93;;
20870;SDS011;10595;51.218;3.452;2023-04-03T00:59:14;16.57;;;11.27;;
20870;SDS011;10595;51.218;3.452;2023-04-03T01:01:41;16.73;;;10.70;;
20870;SDS011;10595;51.218;3.452;2023-04-03T01:06:53;16.67;;;10.27;;
20870;SDS011;10595;51.218;3.452;2023-04-03T01:09:19;13.83;;;10.53;;
20870;SDS011;10595;51.218;3.452;2023-04-03T01:11:45;16.90;;;11.33;;
20870;SDS011;10595;51.218;3.452;2023-04-03T01:14:11;16.27;;;11.10;;
20870;SDS011;10595;51.218;3.452;2023-04-03T01:16:37;17.10;;;11.47;;
20870;SDS011;10595;51.218;3.452;2023-04-03T01:19:05;14.07;;;10.53;;
20870;SDS011;10595;51.218;3.452;2023-04-03T01:24:15;13.03;;;9.63;;
20870;SDS011;10595;51.218;3.452;2023-04-03T01:26:45;17.00;;;11.23;;
20870;SDS011;10595;51.218;3.452;2023-04-03T01:29:11;14.10;;;10.47;;
20870;SDS011;10595;51.218;3.452;2023-04-03T01:31:48;16.03;;;10.27;;
20870;SDS011;10595;51.218;3.452;2023-04-03T01:34:14;13.67;;;10.33;;
20870;SDS011;10595;51.218;3.452;2023-04-03T01:36:40;16.77;;;11.37;;
20870;SDS011;10595;51.218;3.452;2023-04-03T01:39:06;13.67;;;10.00;;
20870;SDS011;10595;51.218;3.452;2023-04-03T01:41:32;16.07;;;10.40;;
20870;SDS011;10595;51.218;3.452;2023-04-03T01:43:59;17.60;;;10.83;;
20870;SDS011;10595;51.218;3.452;2023-04-03T01:46:25;15.50;;;10.53;;
20870;SDS011;10595;51.218;3.452;2023-04-03T01:48:51;15.27;;;9.73;;
20870;SDS011;10595;51.218;3.452;2023-04-03T01:51:17;14.67;;;10.33;;
20870;SDS011;10595;51.218;3.452;2023-04-03T01:53:43;15.70;;;10.53;;
20870;SDS011;10595;51.218;3.452;2023-04-03T01:56:09;17.80;;;11.07;;
20870;SDS011;10595;51.218;3.452;2023-04-03T01:58:35;15.03;;;10.97;;
20870;SDS011;10595;51.218;3.452;2023-04-03T02:01:02;15.67;;;10.17;;
20870;SDS011;10595;51.218;3.452;2023-04-03T02:03:28;17.07;;;10.40;;
20870;SDS011;10595;51.218;3.452;2023-04-03T02:05:54;16.40;;;10.43;;
20870;SDS011;10595;51.218;3.452;2023-04-03T02:08:21;15.37;;;10.17;;
20870;SDS011;10595;51.218;3.452;2023-04-03T02:10:47;15.77;;;11.10;;
20870;SDS011;10595;51.218;3.452;2023-04-03T02:13:13;15.17;;;10.47;;
20870;SDS011;10595;51.218;3.452;2023-04-03T02:15:39;14.67;;;10.23;;
20870;SDS011;10595;51.218;3.452;2023-04-03T02:18:06;16.57;;;11.17;;
20870;SDS011;10595;51.218;3.452;2023-04-03T02:20:32;15.93;;;10.87;;
20870;SDS011;10595;51.218;3.452;2023-04-03T02:22:58;16.03;;;10.43;;
20870;SDS011;10595;51.218;3.452;2023-04-03T02:25:24;17.10;;;11.00;;
20870;SDS011;10595;51.218;3.452;2023-04-03T02:27:51;15.33;;;9.40;;
20870;SDS011;10595;51.218;3.452;2023-04-03T02:30:17;20.03;;;11.40;;
20870;SDS011;10595;51.218;3.452;2023-04-03T02:32:43;15.43;;;10.07;;
20870;SDS011;10595;51.218;3.452;2023-04-03T02:35:10;17.53;;;10.93;;
20870;SDS011;10595;51.218;3.452;2023-04-03T02:37:36;15.40;;;10.90;;
20870;SDS011;10595;51.218;3.452;2023-04-03T02:40:02;14.17;;;10.10;;
20870;SDS011;10595;51.218;3.452;2023-04-03T02:42:29;16.73;;;11.00;;
20870;SDS011;10595;51.218;3.452;2023-04-03T02:44:55;20.83;;;11.60;;
20870;SDS011;10595;51.218;3.452;2023-04-03T02:47:21;17.17;;;10.90;;
20870;SDS011;10595;51.218;3.452;2023-04-03T02:49:47;17.17;;;10.93;;
20870;SDS011;10595;51.218;3.452;2023-04-03T02:52:13;15.90;;;10.87;;
20870;SDS011;10595;51.218;3.452;2023-04-03T02:54:39;18.50;;;10.70;;
20870;SDS011;10595;51.218;3.452;2023-04-03T02:57:05;17.03;;;10.23;;
20870;SDS011;10595;51.218;3.452;2023-04-03T02:59:33;15.57;;;10.60;;
20870;SDS011;10595;51.218;3.452;2023-04-03T03:01:59;18.10;;;11.73;;
20870;SDS011;10595;51.218;3.452;2023-04-03T03:04:25;18.47;;;11.57;;
20870;SDS011;10595;51.218;3.452;2023-04-03T03:06:51;23.53;;;12.07;;
20870;SDS011;10595;51.218;3.452;2023-04-03T03:09:18;17.37;;;10.77;;
20870;SDS011;10595;51.218;3.452;2023-04-03T03:11:44;16.97;;;11.63;;
20870;SDS011;10595;51.218;3.452;2023-04-03T03:14:10;19.23;;;11.60;;
20870;SDS011;10595;51.218;3.452;2023-04-03T03:16:36;16.87;;;11.80;;
20870;SDS011;10595;51.218;3.452;2023-04-03T03:19:02;18.93;;;12.20;;
20870;SDS011;10595;51.218;3.452;2023-04-03T03:21:28;22.37;;;12.70;;
20870;SDS011;10595;51.218;3.452;2023-04-03T03:23:54;22.50;;;13.33;;
20870;SDS011;10595;51.218;3.452;2023-04-03T03:26:20;21.23;;;12.93;;
20870;SDS011;10595;51.218;3.452;2023-04-03T03:28:46;20.83;;;13.77;;
20870;SDS011;10595;51.218;3.452;2023-04-03T03:31:12;21.73;;;14.37;;
20870;SDS011;10595;51.218;3.452;2023-04-03T03:33:40;20.93;;;12.90;;
20870;SDS011;10595;51.218;3.452;2023-04-03T03:36:06;21.40;;;13.43;;
20870;SDS011;10595;51.218;3.452;2023-04-03T03:38:32;20.87;;;12.90;;
20870;SDS011;10595;51.218;3.452;2023-04-03T03:40:58;19.00;;;12.13;;
20870;SDS011;10595;51.218;3.452;2023-04-03T03:43:24;18.27;;;11.90;;
20870;SDS011;10595;51.218;3.452;2023-04-03T03:45:51;19.17;;;12.33;;
20870;SDS011;10595;51.218;3.452;2023-04-03T03:48:18;21.77;;;12.67;;
20870;SDS011;10595;51.218;3.452;2023-04-03T03:50:44;21.03;;;12.33;;
20870;SDS011;10595;51.218;3.452;2023-04-03T03:53:10;20.20;;;13.20;;
20870;SDS011;10595;51.218;3.452;2023-04-03T03:55:36;24.50;;;12.97;;
20870;SDS011;10595;51.218;3.452;2023-04-03T03:58:02;21.07;;;12.97;;
20870;SDS011;10595;51.218;3.452;2023-04-03T04:00:28;21.20;;;13.07;;
20870;SDS011;10595;51.218;3.452;2023-04-03T04:02:55;25.27;;;13.30;;
20870;SDS011;10595;51.218;3.452;2023-04-03T04:05:21;19.00;;;13.45;;
20870;SDS011;10595;51.218;3.452;2023-04-03T04:07:47;21.80;;;12.93;;
20870;SDS011;10595;51.218;3.452;2023-04-03T04:10:14;17.53;;;12.13;;
20870;SDS011;10595;51.218;3.452;2023-04-03T04:12:40;15.80;;;10.77;;
20870;SDS011;10595;51.218;3.452;2023-04-03T04:15:06;15.27;;;10.30;;
20870;SDS011;10595;51.218;3.452;2023-04-03T04:17:32;15.53;;;10.43;;
20870;SDS011;10595;51.218;3.452;2023-04-03T04:20:00;14.90;;;10.60;;
20870;SDS011;10595;51.218;3.452;2023-04-03T04:22:26;19.00;;;11.93;;
20870;SDS011;10595;51.218;3.452;2023-04-03T04:24:52;17.87;;;11.67;;
20870;SDS011;10595;51.218;3.452;2023-04-03T04:27:18;18.67;;;11.93;;
20870;SDS011;10595;51.218;3.452;2023-04-03T04:29:44;20.93;;;12.87;;
20870;SDS011;10595;51.218;3.452;2023-04-03T04:32:10;19.57;;;13.33;;
20870;SDS011;10595;51.218;3.452;2023-04-03T04:34:36;24.27;;;14.47;;
20870;SDS011;10595;51.218;3.452;2023-04-03T04:37:02;20.20;;;12.97;;
20870;SDS011;10595;51.218;3.452;2023-04-03T04:39:28;17.17;;;11.23;;
20870;SDS011;10595;51.218;3.452;2023-04-03T04:41:54;16.77;;;11.20;;
20870;SDS011;10595;51.218;3.452;2023-04-03T04:44:20;18.13;;;11.97;;
20870;SDS011;10595;51.218;3.452;2023-04-03T04:46:46;21.87;;;14.43;;
20870;SDS011;10595;51.218;3.452;2023-04-03T04:49:12;22.77;;;14.17;;
20870;SDS011;10595;51.218;3.452;2023-04-03T04:51:38;17.50;;;12.50;;
20870;SDS011;10595;51.218;3.452;2023-04-03T04:54:04;16.97;;;11.50;;
20870;SDS011;10595;51.218;3.452;2023-04-03T04:56:30;22.47;;;13.63;;
20870;SDS011;10595;51.218;3.452;2023-04-03T04:58:56;19.53;;;11.70;;
20870;SDS011;10595;51.218;3.452;2023-04-03T05:01:22;16.43;;;11.60;;
20870;SDS011;10595;51.218;3.452;2023-04-03T05:03:48;16.07;;;11.10;;
20870;SDS011;10595;51.218;3.452;2023-04-03T05:06:15;17.07;;;11.00;;
20870;SDS011;10595;51.218;3.452;2023-04-03T05:08:41;18.53;;;11.37;;
20870;SDS011;10595;51.218;3.452;2023-04-03T05:11:07;15.90;;;11.03;;
20870;SDS011;10595;51.218;3.452;2023-04-03T05:13:33;14.80;;;10.57;;
20870;SDS011;10595;51.218;3.452;2023-04-03T05:15:59;15.57;;;11.17;;
20870;SDS011;10595;51.218;3.452;2023-04-03T05:18:25;22.93;;;13.80;;
20870;SDS011;10595;51.218;3.452;2023-04-03T05:20:51;18.10;;;12.30;;
20870;SDS011;10595;51.218;3.452;2023-04-03T05:23:17;23.47;;;13.73;;
20870;SDS011;10595;51.218;3.452;2023-04-03T05:25:43;24.67;;;14.00;;
20870;SDS011;10595;51.218;3.452;2023-04-03T05:28:11;22.43;;;14.80;;
20870;SDS011;10595;51.218;3.452;2023-04-03T05:30:37;22.03;;;13.53;;
20870;SDS011;10595;51.218;3.452;2023-04-03T05:33:03;22.50;;;13.10;;
20870;SDS011;10595;51.218;3.452;2023-04-03T05:35:30;19.83;;;13.83;;
20870;SDS011;10595;51.218;3.452;2023-04-03T05:37:57;17.33;;;12.47;;
20870;SDS011;10595;51.218;3.452;2023-04-03T05:40:23;24.33;;;13.30;;
20870;SDS011;10595;51.218;3.452;2023-04-03T05:42:49;18.80;;;12.50;;
20870;SDS011;10595;51.218;3.452;2023-04-03T05:45:15;18.37;;;13.00;;
20870;SDS011;10595;51.218;3.452;2023-04-03T05:47:41;22.50;;;13.90;;
20870;SDS011;10595;51.218;3.452;2023-04-03T05:50:07;26.00;;;15.20;;
20870;SDS011;10595;51.218;3.452;2023-04-03T05:52:35;26.00;;;14.97;;
20870;SDS011;10595;51.218;3.452;2023-04-03T05:55:02;19.40;;;14.47;;
20870;SDS011;10595;51.218;3.452;2023-04-03T05:57:28;20.80;;;15.43;;
20870;SDS011;10595;51.218;3.452;2023-04-03T05:59:54;22.37;;;15.37;;
20870;SDS011;10595;51.218;3.452;2023-04-03T06:02:21;24.10;;;14.93;;
20870;SDS011;10595;51.218;3.452;2023-04-03T06:04:48;26.13;;;15.10;;
20870;SDS011;10595;51.218;3.452;2023-04-03T06:07:19;20.97;;;14.83;;
20870;SDS011;10595;51.218;3.452;2023-04-03T06:09:47;24.47;;;14.33;;
20870;SDS011;10595;51.218;3.452;2023-04-03T06:12:13;23.30;;;14.93;;
20870;SDS011;10595;51.218;3.452;2023-04-03T06:14:40;20.93;;;14.50;;
20870;SDS011;10595;51.218;3.452;2023-04-03T06:17:06;24.67;;;15.77;;
20870;SDS011;10595;51.218;3.452;2023-04-03T06:19:33;21.53;;;14.53;;
20870;SDS011;10595;51.218;3.452;2023-04-03T06:22:00;21.90;;;13.60;;
20870;SDS011;10595;51.218;3.452;2023-04-03T06:24:26;20.57;;;12.73;;
20870;SDS011;10595;51.218;3.452;2023-04-03T06:26:52;18.60;;;12.60;;
20870;SDS011;10595;51.218;3.452;2023-04-03T06:29:21;20.57;;;12.93;;
20870;SDS011;10595;51.218;3.452;2023-04-03T06:31:47;19.93;;;12.27;;
20870;SDS011;10595;51.218;3.452;2023-04-03T06:34:13;38.70;;;18.50;;
20870;SDS011;10595;51.218;3.452;2023-04-03T06:36:40;24.47;;;15.30;;
20870;SDS011;10595;51.218;3.452;2023-04-03T06:39:07;20.47;;;12.67;;
20870;SDS011;10595;51.218;3.452;2023-04-03T06:41:34;19.43;;;12.87;;
20870;SDS011;10595;51.218;3.452;2023-04-03T06:44:00;18.93;;;13.83;;
20870;SDS011;10595;51.218;3.452;2023-04-03T06:46:27;19.83;;;14.20;;
20870;SDS011;10595;51.218;3.452;2023-04-03T06:48:53;18.17;;;13.17;;
20870;SDS011;10595;51.218;3.452;2023-04-03T06:51:21;18.50;;;13.93;;
20870;SDS011;10595;51.218;3.452;2023-04-03T06:53:47;16.47;;;11.97;;
20870;SDS011;10595;51.218;3.452;2023-04-03T06:56:14;14.50;;;11.27;;
20870;SDS011;10595;51.218;3.452;2023-04-03T06:58:40;16.70;;;12.40;;
20870;SDS011;10595;51.218;3.452;2023-04-03T07:01:07;15.97;;;10.13;;
20870;SDS011;10595;51.218;3.452;2023-04-03T07:03:34;14.57;;;9.97;;
20870;SDS011;10595;51.218;3.452;2023-04-03T07:06:02;13.73;;;9.47;;
20870;SDS011;10595;51.218;3.452;2023-04-03T07:08:29;15.93;;;9.63;;
20870;SDS011;10595;51.218;3.452;2023-04-03T07:10:56;12.20;;;9.00;;
20870;SDS011;10595;51.218;3.452;2023-04-03T07:13:23;12.57;;;9.10;;
20870;SDS011;10595;51.218;3.452;2023-04-03T07:15:49;20.13;;;9.50;;
20870;SDS011;10595;51.218;3.452;2023-04-03T07:18:15;10.57;;;8.57;;
20870;SDS011;10595;51.218;3.452;2023-04-03T07:20:44;10.77;;;8.53;;
20870;SDS011;10595;51.218;3.452;2023-04-03T07:23:10;13.87;;;8.83;;
20870;SDS011;10595;51.218;3.452;2023-04-03T07:25:36;13.57;;;8.63;;
20870;SDS011;10595;51.218;3.452;2023-04-03T07:28:03;11.23;;;7.57;;
20870;SDS011;10595;51.218;3.452;2023-04-03T07:30:29;12.17;;;8.47;;
20870;SDS011;10595;51.218;3.452;2023-04-03T07:32:55;8.73;;;7.40;;
20870;SDS011;10595;51.218;3.452;2023-04-03T07:35:21;10.67;;;7.00;;
20870;SDS011;10595;51.218;3.452;2023-04-03T07:37:47;10.73;;;7.57;;
20870;SDS011;10595;51.218;3.452;2023-04-03T07:40:13;9.90;;;7.30;;
20870;SDS011;10595;51.218;3.452;2023-04-03T07:42:39;12.13;;;7.50;;
20870;SDS011;10595;51.218;3.452;2023-04-03T07:45:05;9.87;;;7.20;;
20870;SDS011;10595;51.218;3.452;2023-04-03T07:47:32;13.00;;;7.30;;
20870;SDS011;10595;51.218;3.452;2023-04-03T07:49:58;11.10;;;7.40;;
20870;SDS011;10595;51.218;3.452;2023-04-03T07:52:24;10.77;;;7.33;;
20870;SDS011;10595;51.218;3.452;2023-04-03T07:54:50;13.07;;;7.57;;
20870;SDS011;10595;51.218;3.452;2023-04-03T07:57:16;12.17;;;7.23;;
20870;SDS011;10595;51.218;3.452;2023-04-03T07:59:42;9.37;;;7.10;;
20870;SDS011;10595;51.218;3.452;2023-04-03T08:02:11;12.27;;;8.63;;
20870;SDS011;10595;51.218;3.452;2023-04-03T08:04:37;10.63;;;7.00;;
20870;SDS011;10595;51.218;3.452;2023-04-03T08:07:03;8.03;;;6.63;;
20870;SDS011;10595;51.218;3.452;2023-04-03T08:09:30;8.43;;;5.80;;
20870;SDS011;10595;51.218;3.452;2023-04-03T08:11:56;7.87;;;5.63;;
20870;SDS011;10595;51.218;3.452;2023-04-03T08:14:22;10.07;;;5.80;;
20870;SDS011;10595;51.218;3.452;2023-04-03T08:16:48;10.33;;;5.80;;
20870;SDS011;10595;51.218;3.452;2023-04-03T08:19:15;8.87;;;6.00;;
20870;SDS011;10595;51.218;3.452;2023-04-03T08:21:43;8.67;;;5.57;;
20870;SDS011;10595;51.218;3.452;2023-04-03T08:24:09;10.50;;;5.50;;
20870;SDS011;10595;51.218;3.452;2023-04-03T08:26:35;8.73;;;5.00;;
20870;SDS011;10595;51.218;3.452;2023-04-03T08:29:01;7.90;;;5.03;;
20870;SDS011;10595;51.218;3.452;2023-04-03T08:31:27;6.70;;;4.90;;
20870;SDS011;10595;51.218;3.452;2023-04-03T08:33:53;7.97;;;4.97;;
20870;SDS011;10595;51.218;3.452;2023-04-03T08:36:28;7.60;;;4.90;;
20870;SDS011;10595;51.218;3.452;2023-04-03T08:38:55;7.00;;;5.00;;
20870;SDS011;10595;51.218;3.452;2023-04-03T08:49:04;7.37;;;5.53;;
20870;SDS011;10595;51.218;3.452;2023-04-03T08:51:35;9.43;;;5.93;;
20870;SDS011;10595;51.218;3.452;2023-04-03T08:54:03;8.13;;;5.57;;
20870;SDS011;10595;51.218;3.452;2023-04-03T08:56:30;12.10;;;6.27;;
20870;SDS011;10595;51.218;3.452;2023-04-03T08:58:58;11.90;;;7.67;;
20870;SDS011;10595;51.218;3.452;2023-04-03T09:01:35;11.37;;;7.20;;
20870;SDS011;10595;51.218;3.452;2023-04-03T09:04:01;12.93;;;6.40;;
20870;SDS011;10595;51.218;3.452;2023-04-03T09:06:31;15.50;;;7.63;;
20870;SDS011;10595;51.218;3.452;2023-04-03T09:09:02;13.40;;;7.00;;
20870;SDS011;10595;51.218;3.452;2023-04-03T09:14:14;11.70;;;7.07;;
20870;SDS011;10595;51.218;3.452;2023-04-03T09:22:31;12.10;;;6.20;;
20870;SDS011;10595;51.218;3.452;2023-04-03T09:25:11;9.57;;;5.30;;
20870;SDS011;10595;51.218;3.452;2023-04-03T09:27:39;12.13;;;5.00;;
20870;SDS011;10595;51.218;3.452;2023-04-03T09:30:05;10.03;;;4.67;;
20870;SDS011;10595;51.218;3.452;2023-04-03T09:32:34;7.27;;;3.90;;
20870;SDS011;10595;51.218;3.452;2023-04-03T09:35:03;9.20;;;4.23;;
20870;SDS011;10595;51.218;3.452;2023-04-03T09:37:48;7.27;;;3.10;;
20870;SDS011;10595;51.218;3.452;2023-04-03T09:42:54;6.70;;;3.50;;
20870;SDS011;10595;51.218;3.452;2023-04-03T09:45:23;6.00;;;3.20;;
20870;SDS011;10595;51.218;3.452;2023-04-03T09:48:05;4.70;;;2.90;;
20870;SDS011;10595;51.218;3.452;2023-04-03T09:50:32;6.73;;;2.63;;
20870;SDS011;10595;51.218;3.452;2023-04-03T09:52:59;7.10;;;3.47;;
20870;SDS011;10595;51.218;3.452;2023-04-03T09:55:30;4.53;;;3.30;;
20870;SDS011;10595;51.218;3.452;2023-04-03T09:57:57;5.07;;;3.13;;
20870;SDS011;10595;51.218;3.452;2023-04-03T10:00:25;6.73;;;3.33;;
20870;SDS011;10595;51.218;3.452;2023-04-03T10:02:54;6.07;;;2.90;;
20870;SDS011;10595;51.218;3.452;2023-04-03T10:08:07;5.40;;;2.77;;
20870;SDS011;10595;51.218;3.452;2023-04-03T10:10:33;7.63;;;3.53;;
20870;SDS011;10595;51.218;3.452;2023-04-03T10:15:36;4.33;;;2.60;;
20870;SDS011;10595;51.218;3.452;2023-04-03T10:21:07;7.80;;;3.00;;
20870;SDS011;10595;51.218;3.452;2023-04-03T10:24:49;6.00;;;2.77;;
20870;SDS011;10595;51.218;3.452;2023-04-03T10:36:46;6.70;;;2.87;;
20870;SDS011;10595;51.218;3.452;2023-04-03T10:41:55;8.43;;;2.73;;
20870;SDS011;10595;51.218;3.452;2023-04-03T10:52:28;5.03;;;2.47;;
20870;SDS011;10595;51.218;3.452;2023-04-03T10:55:02;4.83;;;2.50;;
20870;SDS011;10595;51.218;3.452;2023-04-03T10:57:30;9.00;;;2.63;;
20870;SDS011;10595;51.218;3.452;2023-04-03T10:59:58;5.53;;;2.63;;
20870;SDS011;10595;51.218;3.452;2023-04-03T11:02:27;6.13;;;3.53;;
20870;SDS011;10595;51.218;3.452;2023-04-03T11:04:56;9.53;;;4.03;;
20870;SDS011;10595;51.218;3.452;2023-04-03T11:07:31;6.37;;;3.30;;
20870;SDS011;10595;51.218;3.452;2023-04-03T11:10:00;5.30;;;2.30;;
20870;SDS011;10595;51.218;3.452;2023-04-03T11:12:30;3.07;;;1.90;;
20870;SDS011;10595;51.218;3.452;2023-04-03T11:14:59;6.40;;;2.63;;
20870;SDS011;10595;51.218;3.452;2023-04-03T11:17:31;4.17;;;2.60;;
20870;SDS011;10595;51.218;3.452;2023-04-03T11:20:01;5.00;;;2.30;;
20870;SDS011;10595;51.218;3.452;2023-04-03T11:22:41;6.77;;;2.00;;
20870;SDS011;10595;51.218;3.452;2023-04-03T11:30:18;9.80;;;2.30;;
20870;SDS011;10595;51.218;3.452;2023-04-03T11:35:45;4.50;;;1.93;;
20870;SDS011;10595;51.218;3.452;2023-04-03T11:38:26;5.93;;;2.60;;
20870;SDS011;10595;51.218;3.452;2023-04-03T11:40:54;4.03;;;1.63;;
20870;SDS011;10595;51.218;3.452;2023-04-03T11:43:26;4.37;;;1.90;;
20870;SDS011;10595;51.218;3.452;2023-04-03T11:46:03;4.77;;;2.00;;
20870;SDS011;10595;51.218;3.452;2023-04-03T11:51:00;6.03;;;2.10;;
20870;SDS011;10595;51.218;3.452;2023-04-03T11:55:57;4.43;;;2.23;;
20870;SDS011;10595;51.218;3.452;2023-04-03T11:58:35;7.73;;;2.50;;
20870;SDS011;10595;51.218;3.452;2023-04-03T12:01:08;6.00;;;1.90;;
20870;SDS011;10595;51.218;3.452;2023-04-03T12:29:24;3.27;;;1.97;;
20870;SDS011;10595;51.218;3.452;2023-04-03T12:45:20;4.13;;;1.70;;
20870;SDS011;10595;51.218;3.452;2023-04-03T12:47:48;2.40;;;1.40;;
20870;SDS011;10595;51.218;3.452;2023-04-03T12:50:21;2.50;;;1.57;;
20870;SDS011;10595;51.218;3.452;2023-04-03T12:53:11;3.60;;;1.30;;
20870;SDS011;10595;51.218;3.452;2023-04-03T12:55:38;3.20;;;1.33;;
20870;SDS011;10595;51.218;3.452;2023-04-03T12:58:14;4.47;;;1.23;;
20870;SDS011;10595;51.218;3.452;2023-04-03T13:00:41;4.70;;;1.40;;
20870;SDS011;10595;51.218;3.452;2023-04-03T13:03:19;1.27;;;1.00;;
20870;SDS011;10595;51.218;3.452;2023-04-03T13:05:47;2.20;;;1.27;;
20870;SDS011;10595;51.218;3.452;2023-04-03T13:08:13;4.03;;;1.03;;
20870;SDS011;10595;51.218;3.452;2023-04-03T13:10:53;1.93;;;1.20;;
20870;SDS011;10595;51.218;3.452;2023-04-03T13:13:20;2.50;;;1.17;;
20870;SDS011;10595;51.218;3.452;2023-04-03T13:15:48;2.87;;;1.17;;
20870;SDS011;10595;51.218;3.452;2023-04-03T13:18:29;2.40;;;1.07;;
20870;SDS011;10595;51.218;3.452;2023-04-03T13:20:57;3.50;;;1.60;;
20870;SDS011;10595;51.218;3.452;2023-04-03T13:23:25;3.20;;;2.10;;
20870;SDS011;10595;51.218;3.452;2023-04-03T13:25:52;3.60;;;1.50;;
20870;SDS011;10595;51.218;3.452;2023-04-03T13:28:20;2.83;;;1.20;;
20870;SDS011;10595;51.218;3.452;2023-04-03T13:33:23;2.63;;;1.17;;
20870;SDS011;10595;51.218;3.452;2023-04-03T13:35:58;4.33;;;2.00;;
20870;SDS011;10595;51.218;3.452;2023-04-03T13:38:26;3.00;;;1.20;;
20870;SDS011;10595;51.218;3.452;2023-04-03T13:43:20;2.73;;;1.20;;
20870;SDS011;10595;51.218;3.452;2023-04-03T13:45:55;1.50;;;1.10;;
20870;SDS011;10595;51.218;3.452;2023-04-03T13:48:21;1.57;;;1.07;;
20870;SDS011;10595;51.218;3.452;2023-04-03T13:50:52;2.57;;;1.13;;
20870;SDS011;10595;51.218;3.452;2023-04-03T13:53:19;2.10;;;1.40;;
20870;SDS011;10595;51.218;3.452;2023-04-03T13:55:59;4.90;;;1.30;;
20870;SDS011;10595;51.218;3.452;2023-04-03T13:58:29;5.77;;;1.40;;
20870;SDS011;10595;51.218;3.452;2023-04-03T14:03:34;5.00;;;1.57;;
20870;SDS011;10595;51.218;3.452;2023-04-03T14:06:06;2.83;;;1.10;;
20870;SDS011;10595;51.218;3.452;2023-04-03T14:08:34;1.30;;;1.10;;
20870;SDS011;10595;51.218;3.452;2023-04-03T14:11:01;2.93;;;1.60;;
20870;SDS011;10595;51.218;3.452;2023-04-03T14:13:29;4.07;;;1.48;;
20870;SDS011;10595;51.218;3.452;2023-04-03T14:15:56;3.70;;;1.63;;
20870;SDS011;10595;51.218;3.452;2023-04-03T14:18:22;1.80;;;1.10;;
20870;SDS011;10595;51.218;3.452;2023-04-03T14:20:48;3.70;;;1.57;;
20870;SDS011;10595;51.218;3.452;2023-04-03T14:23:15;3.20;;;2.03;;
20870;SDS011;10595;51.218;3.452;2023-04-03T14:25:41;3.10;;;1.40;;
20870;SDS011;10595;51.218;3.452;2023-04-03T14:28:12;1.20;;;1.10;;
20870;SDS011;10595;51.218;3.452;2023-04-03T14:30:39;1.83;;;1.20;;
20870;SDS011;10595;51.218;3.452;2023-04-03T14:33:05;2.53;;;1.20;;
20870;SDS011;10595;51.218;3.452;2023-04-03T14:35:32;2.57;;;1.13;;
20870;SDS011;10595;51.218;3.452;2023-04-03T14:37:58;2.23;;;0.87;;
20870;SDS011;10595;51.218;3.452;2023-04-03T14:40:25;2.13;;;1.13;;
20870;SDS011;10595;51.218;3.452;2023-04-03T14:42:51;2.07;;;1.40;;
20870;SDS011;10595;51.218;3.452;2023-04-03T14:45:20;3.57;;;1.03;;
20870;SDS011;10595;51.218;3.452;2023-04-03T14:47:48;1.40;;;0.83;;
20870;SDS011;10595;51.218;3.452;2023-04-03T14:50:16;1.67;;;1.30;;
20870;SDS011;10595;51.218;3.452;2023-04-03T14:52:43;2.93;;;1.27;;
20870;SDS011;10595;51.218;3.452;2023-04-03T14:55:11;2.23;;;1.20;;
20870;SDS011;10595;51.218;3.452;2023-04-03T14:57:37;1.30;;;1.20;;
20870;SDS011;10595;51.218;3.452;2023-04-03T15:00:04;1.73;;;1.00;;
20870;SDS011;10595;51.218;3.452;2023-04-03T15:02:35;2.67;;;1.30;;
20870;SDS011;10595;51.218;3.452;2023-04-03T15:05:02;1.53;;;1.00;;
20870;SDS011;10595;51.218;3.452;2023-04-03T15:07:30;1.43;;;1.07;;
20870;SDS011;10595;51.218;3.452;2023-04-03T15:09:56;1.87;;;1.27;;
20870;SDS011;10595;51.218;3.452;2023-04-03T15:12:23;2.70;;;1.57;;
20870;SDS011;10595;51.218;3.452;2023-04-03T15:14:49;2.73;;;1.27;;
20870;SDS011;10595;51.218;3.452;2023-04-03T15:17:16;2.30;;;1.50;;
20870;SDS011;10595;51.218;3.452;2023-04-03T15:19:43;2.10;;;1.10;;
20870;SDS011;10595;51.218;3.452;2023-04-03T15:22:12;2.77;;;1.23;;
20870;SDS011;10595;51.218;3.452;2023-04-03T15:24:39;3.13;;;1.17;;
20870;SDS011;10595;51.218;3.452;2023-04-03T15:27:05;3.03;;;1.47;;
20870;SDS011;10595;51.218;3.452;2023-04-03T15:29:31;2.07;;;1.10;;
20870;SDS011;10595;51.218;3.452;2023-04-03T15:31:57;2.43;;;1.33;;
20870;SDS011;10595;51.218;3.452;2023-04-03T15:34:23;1.93;;;1.00;;
20870;SDS011;10595;51.218;3.452;2023-04-03T15:36:49;2.33;;;1.10;;
20870;SDS011;10595;51.218;3.452;2023-04-03T15:39:19;2.73;;;1.37;;
20870;SDS011;10595;51.218;3.452;2023-04-03T15:41:45;3.13;;;1.40;;
20870;SDS011;10595;51.218;3.452;2023-04-03T15:44:11;2.33;;;1.30;;
20870;SDS011;10595;51.218;3.452;2023-04-03T15:46:38;1.37;;;1.03;;
20870;SDS011;10595;51.218;3.452;2023-04-03T15:49:06;3.20;;;1.17;;
20870;SDS011;10595;51.218;3.452;2023-04-03T15:51:32;2.90;;;1.20;;
20870;SDS011;10595;51.218;3.452;2023-04-03T15:53:58;3.20;;;1.07;;
20870;SDS011;10595;51.218;3.452;2023-04-03T15:56:24;3.30;;;1.00;;
20870;SDS011;10595;51.218;3.452;2023-04-03T15:58:50;5.10;;;2.33;;
20870;SDS011;10595;51.218;3.452;2023-04-03T16:01:16;8.07;;;3.27;;
20870;SDS011;10595;51.218;3.452;2023-04-03T16:03:42;10.63;;;5.30;;
20870;SDS011;10595;51.218;3.452;2023-04-03T16:06:13;5.00;;;2.60;;
20870;SDS011;10595;51.218;3.452;2023-04-03T16:08:39;4.17;;;2.33;;
20870;SDS011;10595;51.218;3.452;2023-04-03T16:11:05;2.30;;;1.30;;
20870;SDS011;10595;51.218;3.452;2023-04-03T16:13:31;7.43;;;3.67;;
20870;SDS011;10595;51.218;3.452;2023-04-03T16:15:58;1.17;;;1.00;;
20870;SDS011;10595;51.218;3.452;2023-04-03T16:18:25;3.57;;;1.30;;
20870;SDS011;10595;51.218;3.452;2023-04-03T16:20:51;2.67;;;1.53;;
20870;SDS011;10595;51.218;3.452;2023-04-03T16:23:17;3.63;;;1.23;;
20870;SDS011;10595;51.218;3.452;2023-04-03T16:25:43;3.43;;;1.80;;
20870;SDS011;10595;51.218;3.452;2023-04-03T16:28:12;2.57;;;1.20;;
20870;SDS011;10595;51.218;3.452;2023-04-03T16:30:39;7.97;;;2.87;;